createdAt,value
2022-10-17T00:00:13.058Z,100.00
2022-10-17T00:01:15.428Z,100.00
2022-10-17T00:02:17.612Z,100.00
2022-10-17T00:03:20.178Z,100.00
2022-10-17T00:04:22.422Z,100.00
2022-10-17T00:05:25.090Z,100.00
2022-10-17T00:06:27.202Z,100.00
2022-10-17T00:07:30.703Z,100.00
2022-10-17T00:08:33.063Z,100.00
2022-10-17T00:09:35.167Z,100.00
2022-10-17T00:10:37.627Z,100.00
2022-10-17T00:11:39.764Z,100.00
2022-10-17T00:12:41.914Z,100.00
2022-10-17T00:13:45.419Z,100.00
2022-10-17T00:14:47.536Z,100.00
2022-10-17T00:15:49.679Z,100.00
2022-10-17T00:16:51.819Z,100.00
2022-10-17T00:17:53.958Z,100.00
2022-10-17T00:18:56.998Z,100.00
2022-10-17T00:20:00.409Z,100.00
2022-10-17T00:21:02.725Z,100.00
2022-10-17T00:22:04.842Z,100.00
2022-10-17T00:23:06.948Z,100.00
2022-10-17T00:24:09.030Z,100.00
2022-10-17T00:25:11.410Z,100.00
2022-10-17T00:26:14.682Z,100.00
2022-10-17T00:27:16.819Z,100.00
2022-10-17T00:28:18.913Z,100.00
2022-10-17T00:29:21.038Z,100.00
2022-10-17T00:30:23.485Z,100.00
2022-10-17T00:31:26.232Z,100.00
2022-10-17T00:32:28.655Z,100.00
2022-10-17T00:33:32.176Z,100.00
2022-10-17T00:34:34.426Z,100.00
2022-10-17T00:35:36.650Z,100.00
2022-10-17T00:36:38.863Z,100.00
2022-10-17T00:37:40.970Z,100.00
2022-10-17T00:38:44.977Z,100.00
2022-10-17T00:39:47.071Z,100.00
2022-10-17T00:40:49.280Z,100.00
2022-10-17T00:41:51.521Z,100.00
2022-10-17T00:42:55.162Z,100.00
2022-10-17T00:44:31.672Z,100.00
2022-10-17T00:45:33.804Z,100.00
2022-10-17T00:46:38.359Z,100.00
2022-10-17T00:47:45.030Z,100.00
2022-10-17T00:48:49.722Z,100.00
2022-10-17T00:49:52.016Z,100.00
2022-10-17T00:50:54.874Z,100.00
2022-10-17T00:52:02.982Z,100.00
2022-10-17T00:53:07.809Z,100.00
2022-10-17T00:54:11.505Z,100.00
2022-10-17T00:55:31.518Z,100.00
2022-10-17T00:56:34.730Z,100.00
2022-10-17T00:57:37.194Z,100.00
2022-10-17T00:58:39.580Z,100.00
2022-10-17T00:59:45.382Z,100.00
2022-10-17T01:00:49.449Z,100.00
2022-10-17T01:02:00.708Z,100.00
2022-10-17T01:03:02.922Z,100.00
2022-10-17T01:04:05.278Z,100.00
2022-10-17T01:05:08.564Z,100.00
2022-10-17T01:06:10.714Z,100.00
2022-10-17T01:07:13.097Z,100.00
2022-10-17T01:08:15.772Z,100.00
2022-10-17T01:09:18.319Z,100.00
2022-10-17T01:11:44.831Z,100.00
2022-10-17T01:12:46.904Z,100.00
2022-10-17T01:13:56.402Z,100.00
2022-10-17T01:15:23.207Z,100.00
2022-10-17T01:16:37.110Z,100.00
2022-10-17T01:18:00.790Z,100.00
2022-10-17T01:19:17.966Z,100.00
2022-10-17T01:20:59.920Z,100.00
2022-10-17T01:22:07.998Z,100.00
2022-10-17T01:23:24.975Z,100.00
2022-10-17T01:24:49.151Z,100.00
2022-10-17T01:26:04.793Z,100.00
2022-10-17T01:27:45.324Z,100.00
2022-10-17T01:29:15.902Z,100.00
2022-10-17T01:30:41.171Z,100.00
2022-10-17T01:31:45.957Z,100.00
2022-10-17T01:32:58.134Z,100.00
2022-10-17T01:34:12.359Z,100.00
2022-10-17T01:35:23.792Z,100.00
2022-10-17T01:36:38.005Z,100.00
2022-10-17T01:37:49.111Z,100.00
2022-10-17T01:39:02.554Z,100.00
2022-10-17T01:40:20.195Z,100.00
2022-10-17T01:41:30.833Z,100.00
2022-10-17T01:42:35.941Z,100.00
2022-10-17T01:43:45.135Z,100.00
2022-10-17T01:44:58.283Z,100.00
2022-10-17T01:46:25.068Z,100.00
2022-10-17T01:47:31.375Z,100.00
2022-10-17T01:48:40.004Z,100.00
2022-10-17T01:49:45.264Z,100.00
2022-10-17T01:50:55.932Z,100.00
2022-10-17T01:52:03.413Z,100.00
2022-10-17T01:53:12.439Z,100.00
2022-10-17T01:54:21.417Z,100.00
2022-10-17T01:55:30.977Z,100.00
2022-10-17T01:56:35.614Z,100.00
2022-10-17T01:57:45.034Z,100.00
2022-10-17T01:58:55.427Z,100.00
2022-10-17T01:59:58.280Z,100.00
2022-10-17T02:01:05.548Z,100.00
2022-10-17T02:02:09.873Z,100.00
2022-10-17T02:03:17.340Z,100.00
2022-10-17T02:04:20.313Z,100.00
2022-10-17T02:05:28.706Z,100.00
2022-10-17T02:06:35.197Z,100.00
2022-10-17T02:07:37.571Z,100.00
2022-10-17T02:08:43.610Z,100.00
2022-10-17T02:09:45.763Z,100.00
2022-10-17T02:11:08.983Z,100.00
2022-10-17T02:12:18.362Z,100.00
2022-10-17T02:13:23.081Z,100.00
2022-10-17T02:14:34.919Z,100.00
2022-10-17T02:15:55.075Z,100.00
2022-10-17T02:17:23.813Z,100.00
2022-10-17T02:18:54.783Z,100.00
2022-10-17T02:20:20.143Z,100.00
2022-10-17T02:21:39.589Z,100.00
2022-10-17T02:22:53.708Z,100.00
2022-10-17T02:24:01.145Z,100.00
2022-10-17T02:25:21.652Z,100.00
2022-10-17T02:26:32.480Z,100.00
2022-10-17T02:27:56.524Z,100.00
2022-10-17T02:29:19.385Z,100.00
2022-10-17T02:30:36.967Z,100.00
2022-10-17T02:31:59.551Z,100.00
2022-10-17T02:33:10.173Z,100.00
2022-10-17T02:34:24.946Z,100.00
2022-10-17T02:35:31.827Z,100.00
2022-10-17T02:36:39.621Z,100.00
2022-10-17T02:37:44.519Z,100.00
2022-10-17T02:38:47.145Z,100.00
2022-10-17T02:39:51.157Z,100.00
2022-10-17T02:40:54.119Z,100.00
2022-10-17T02:41:59.057Z,100.00
2022-10-17T02:43:01.202Z,100.00
2022-10-17T02:44:06.449Z,100.00
2022-10-17T02:45:09.708Z,100.00
2022-10-17T02:46:21.033Z,100.00
2022-10-17T02:47:39.297Z,100.00
2022-10-17T02:48:47.492Z,100.00
2022-10-17T02:49:55.476Z,100.00
2022-10-17T02:51:05.313Z,100.00
2022-10-17T02:52:14.328Z,100.00
2022-10-17T02:53:26.490Z,100.00
2022-10-17T02:54:37.261Z,100.00
2022-10-17T02:55:48.315Z,100.00
2022-10-17T02:56:59.582Z,100.00
2022-10-17T02:58:10.152Z,100.00
2022-10-17T02:59:17.506Z,100.00
2022-10-17T03:00:22.255Z,100.00
2022-10-17T03:01:25.447Z,100.00
2022-10-17T03:02:28.639Z,100.00
2022-10-17T03:03:32.775Z,100.00
2022-10-17T03:04:37.309Z,100.00
2022-10-17T03:05:39.467Z,100.00
2022-10-17T03:06:41.730Z,100.00
2022-10-17T03:07:43.928Z,100.00
2022-10-17T03:08:46.039Z,100.00
2022-10-17T03:09:48.200Z,100.00
2022-10-17T03:10:51.876Z,100.00
2022-10-17T03:11:54.426Z,100.00
2022-10-17T03:12:56.646Z,100.00
2022-10-17T03:13:59.034Z,100.00
2022-10-17T03:15:02.690Z,100.00
2022-10-17T03:16:06.389Z,100.00
2022-10-17T03:17:11.009Z,100.00
2022-10-17T03:18:13.235Z,100.00
2022-10-17T03:19:15.360Z,100.00
2022-10-17T03:20:17.541Z,100.00
2022-10-17T03:21:20.706Z,100.00
2022-10-17T03:22:23.145Z,100.00
2022-10-17T03:23:25.296Z,100.00
2022-10-17T03:24:27.825Z,100.00
2022-10-17T03:25:30.096Z,100.00
2022-10-17T03:26:33.548Z,100.00
2022-10-17T03:27:35.742Z,100.00
2022-10-17T03:28:38.003Z,100.00
2022-10-17T03:29:40.493Z,100.00
2022-10-17T03:30:44.713Z,100.00
2022-10-17T03:31:47.066Z,100.00
2022-10-17T03:32:49.652Z,100.00
2022-10-17T03:33:52.124Z,100.00
2022-10-17T03:34:54.265Z,100.00
2022-10-17T03:35:56.410Z,100.00
2022-10-17T03:36:58.583Z,100.00
2022-10-17T03:38:03.229Z,100.00
2022-10-17T03:39:05.966Z,100.00
2022-10-17T03:40:08.554Z,100.00
2022-10-17T03:41:10.768Z,100.00
2022-10-17T03:42:13.980Z,100.00
2022-10-17T03:43:16.118Z,100.00
2022-10-17T03:44:18.283Z,100.00
2022-10-17T03:45:20.369Z,100.00
2022-10-17T03:46:23.666Z,100.00
2022-10-17T03:47:25.922Z,100.00
2022-10-17T03:48:30.244Z,100.00
2022-10-17T03:49:32.424Z,100.00
2022-10-17T03:50:34.549Z,100.00
2022-10-17T03:51:37.636Z,100.00
2022-10-17T03:52:48.805Z,100.00
2022-10-17T03:53:51.174Z,100.00
2022-10-17T03:54:53.349Z,100.00
2022-10-17T03:55:55.526Z,100.00
2022-10-17T03:56:58.461Z,100.00
2022-10-17T03:58:00.585Z,100.00
2022-10-17T03:59:03.559Z,100.00
2022-10-17T04:00:09.306Z,100.00
2022-10-17T04:01:17.743Z,100.00
2022-10-17T04:02:20.983Z,100.00
2022-10-17T04:03:24.439Z,100.00
2022-10-17T04:04:27.338Z,100.00
2022-10-17T04:05:29.497Z,100.00
2022-10-17T04:06:32.473Z,100.00
2022-10-17T04:07:37.265Z,100.00
2022-10-17T04:08:42.550Z,100.00
2022-10-17T04:09:48.567Z,100.00
2022-10-17T04:11:03.057Z,100.00
2022-10-17T04:12:05.986Z,100.00
2022-10-17T04:13:08.828Z,100.00
2022-10-17T04:14:11.036Z,100.00
2022-10-17T04:15:14.919Z,100.00
2022-10-17T04:16:17.422Z,100.00
2022-10-17T04:17:38.157Z,100.00
2022-10-17T04:18:42.578Z,100.00
2022-10-17T04:19:44.712Z,100.00
2022-10-17T04:20:49.204Z,100.00
2022-10-17T04:21:51.641Z,100.00
2022-10-17T04:22:54.943Z,100.00
2022-10-17T04:24:00.722Z,100.00
2022-10-17T04:25:32.270Z,100.00
2022-10-17T04:26:36.974Z,100.00
2022-10-17T04:27:39.143Z,100.00
2022-10-17T04:28:41.828Z,100.00
2022-10-17T04:29:44.271Z,100.00
2022-10-17T04:31:01.027Z,100.00
2022-10-17T04:32:08.103Z,100.00
2022-10-17T04:33:31.906Z,100.00
2022-10-17T04:34:34.038Z,100.00
2022-10-17T04:35:36.281Z,100.00
2022-10-17T04:36:41.162Z,100.00
2022-10-17T04:37:43.684Z,100.00
2022-10-17T04:38:52.136Z,100.00
2022-10-17T04:39:54.729Z,100.00
2022-10-17T04:40:58.570Z,100.00
2022-10-17T04:42:00.653Z,100.00
2022-10-17T04:43:02.775Z,100.00
2022-10-17T04:44:11.298Z,100.00
2022-10-17T04:45:17.414Z,100.00
2022-10-17T04:46:20.796Z,100.00
2022-10-17T04:47:23.978Z,100.00
2022-10-17T04:48:26.349Z,100.00
2022-10-17T04:49:28.531Z,100.00
2022-10-17T04:50:35.637Z,100.00
2022-10-17T04:51:55.054Z,100.00
2022-10-17T04:53:00.653Z,100.00
2022-10-17T04:54:02.852Z,100.00
2022-10-17T04:55:06.144Z,100.00
2022-10-17T04:56:10.202Z,100.00
2022-10-17T04:57:12.594Z,100.00
2022-10-17T04:58:16.468Z,100.00
2022-10-17T04:59:18.819Z,100.00
2022-10-17T05:00:23.444Z,100.00
2022-10-17T05:01:34.902Z,100.00
2022-10-17T05:02:37.041Z,100.00
2022-10-17T05:03:40.359Z,100.00
2022-10-17T05:04:42.775Z,100.00
2022-10-17T05:05:47.115Z,100.00
2022-10-17T05:06:49.236Z,100.00
2022-10-17T05:08:14.269Z,100.00
2022-10-17T05:09:17.057Z,100.00
2022-10-17T05:10:19.460Z,100.00
2022-10-17T05:11:25.240Z,100.00
2022-10-17T05:12:27.566Z,100.00
2022-10-17T05:13:30.103Z,100.00
2022-10-17T05:14:32.265Z,100.00
2022-10-17T05:15:35.516Z,100.00
2022-10-17T05:16:38.140Z,100.00
2022-10-17T05:17:40.832Z,100.00
2022-10-17T05:18:42.932Z,100.00
2022-10-17T05:19:45.182Z,100.00
2022-10-17T05:20:47.290Z,100.00
2022-10-17T05:21:49.437Z,100.00
2022-10-17T05:22:51.746Z,100.00
2022-10-17T05:23:54.867Z,100.00
2022-10-17T05:24:57.683Z,100.00
2022-10-17T05:25:59.988Z,100.00
2022-10-17T05:27:02.509Z,100.00
2022-10-17T05:28:04.989Z,100.00
2022-10-17T05:29:07.308Z,100.00
2022-10-17T05:30:13.355Z,100.00
2022-10-17T05:31:16.170Z,100.00
2022-10-17T05:32:18.565Z,100.00
2022-10-17T05:33:20.754Z,100.00
2022-10-17T05:34:22.975Z,100.00
2022-10-17T05:35:25.681Z,100.00
2022-10-17T05:36:28.700Z,100.00
2022-10-17T05:37:31.828Z,100.00
2022-10-17T05:38:35.386Z,100.00
2022-10-17T05:39:38.067Z,100.00
2022-10-17T05:40:40.476Z,100.00
2022-10-17T05:41:42.602Z,100.00
2022-10-17T05:42:48.746Z,100.00
2022-10-17T05:43:52.466Z,100.00
2022-10-17T05:45:00.055Z,100.00
2022-10-17T05:46:06.709Z,100.00
2022-10-17T05:47:09.862Z,100.00
2022-10-17T05:48:11.995Z,100.00
2022-10-17T05:49:19.667Z,100.00
2022-10-17T05:50:35.887Z,100.00
2022-10-17T05:51:43.503Z,100.00
2022-10-17T05:52:47.168Z,100.00
2022-10-17T05:53:51.527Z,100.00
2022-10-17T05:54:58.886Z,100.00
2022-10-17T05:56:04.046Z,100.00
2022-10-17T05:57:07.735Z,100.00
2022-10-17T05:58:17.693Z,100.00
2022-10-17T05:59:29.137Z,100.00
2022-10-17T06:00:41.602Z,100.00
2022-10-17T06:01:43.814Z,100.00
2022-10-17T06:02:46.443Z,100.00
2022-10-17T06:03:50.484Z,100.00
2022-10-17T06:04:52.693Z,100.00
2022-10-17T06:05:56.840Z,100.00
2022-10-17T06:06:59.148Z,100.00
2022-10-17T06:08:02.205Z,100.00
2022-10-17T06:09:08.210Z,100.00
2022-10-17T06:10:16.225Z,100.00
2022-10-17T06:11:18.368Z,100.00
2022-10-17T06:12:21.215Z,100.00
2022-10-17T06:13:23.670Z,100.00
2022-10-17T06:14:27.314Z,100.00
2022-10-17T06:15:35.069Z,100.00
2022-10-17T06:16:41.575Z,100.00
2022-10-17T06:17:43.720Z,100.00
2022-10-17T06:18:45.962Z,100.00
2022-10-17T06:19:48.139Z,100.00
2022-10-17T06:20:51.081Z,100.00
2022-10-17T06:21:54.639Z,100.00
2022-10-17T06:22:58.389Z,100.00
2022-10-17T06:24:18.681Z,100.00
2022-10-17T06:25:21.318Z,100.00
2022-10-17T06:26:23.522Z,100.00
2022-10-17T06:27:25.878Z,100.00
2022-10-17T06:28:28.138Z,100.00
2022-10-17T06:29:30.391Z,100.00
2022-10-17T06:30:32.565Z,100.00
2022-10-17T06:31:35.065Z,100.00
2022-10-17T06:32:37.326Z,100.00
2022-10-17T06:33:40.781Z,100.00
2022-10-17T06:34:43.638Z,100.00
2022-10-17T06:35:52.591Z,100.00
2022-10-17T06:37:57.217Z,100.00
2022-10-17T06:38:59.831Z,100.00
2022-10-17T06:40:12.312Z,100.00
2022-10-17T06:41:16.693Z,100.00
2022-10-17T06:42:18.909Z,100.00
2022-10-17T06:43:41.332Z,100.00
2022-10-17T06:45:02.086Z,100.00
2022-10-17T06:46:29.722Z,100.00
2022-10-17T06:47:38.004Z,100.00
2022-10-17T06:49:00.242Z,100.00
2022-10-17T06:50:15.932Z,100.00
2022-10-17T06:51:23.531Z,100.00
2022-10-17T06:52:29.830Z,100.00
2022-10-17T06:53:50.539Z,100.00
2022-10-17T06:55:10.991Z,100.00
2022-10-17T06:56:25.004Z,100.00
2022-10-17T06:58:05.275Z,100.00
2022-10-17T06:59:33.133Z,100.00
2022-10-17T07:01:04.120Z,100.00
2022-10-17T07:02:06.563Z,100.00
2022-10-17T07:03:08.891Z,100.00
2022-10-17T07:04:11.422Z,100.00
2022-10-17T07:05:13.550Z,100.00
2022-10-17T07:06:15.848Z,100.00
2022-10-17T07:07:19.377Z,100.00
2022-10-17T07:08:22.475Z,100.00
2022-10-17T07:09:25.023Z,100.00
2022-10-17T07:10:27.126Z,100.00
2022-10-17T07:11:29.410Z,100.00
2022-10-17T07:12:31.529Z,100.00
2022-10-17T07:13:38.843Z,100.00
2022-10-17T07:14:42.162Z,100.00
2022-10-17T07:15:44.271Z,100.00
2022-10-17T07:16:46.554Z,100.00
2022-10-17T07:17:54.857Z,100.00
2022-10-17T07:18:57.092Z,100.00
2022-10-17T07:19:59.243Z,100.00
2022-10-17T07:21:01.957Z,100.00
2022-10-17T07:22:04.567Z,100.00
2022-10-17T07:23:07.773Z,100.00
2022-10-17T07:24:11.662Z,100.00
2022-10-17T07:25:16.444Z,100.00
2022-10-17T07:26:23.956Z,100.00
2022-10-17T07:27:26.252Z,100.00
2022-10-17T07:28:29.270Z,100.00
2022-10-17T07:29:34.869Z,100.00
2022-10-17T07:31:03.582Z,100.00
2022-10-17T07:32:08.483Z,100.00
2022-10-17T07:33:10.721Z,100.00
2022-10-17T07:34:12.871Z,100.00
2022-10-17T07:35:15.114Z,100.00
2022-10-17T07:36:17.789Z,100.00
2022-10-17T07:37:19.894Z,100.00
2022-10-17T07:38:28.718Z,100.00
2022-10-17T07:39:30.874Z,100.00
2022-10-17T07:40:33.272Z,100.00
2022-10-17T07:41:35.482Z,100.00
2022-10-17T07:43:46.535Z,100.00
2022-10-17T07:44:51.091Z,100.00
2022-10-17T07:45:54.096Z,100.00
2022-10-17T07:46:56.213Z,100.00
2022-10-17T07:47:58.982Z,100.00
2022-10-17T07:49:01.184Z,100.00
2022-10-17T07:50:05.592Z,100.00
2022-10-17T07:51:09.387Z,100.00
2022-10-17T07:52:15.309Z,100.00
2022-10-17T07:53:17.953Z,100.00
2022-10-17T07:54:20.039Z,100.00
2022-10-17T07:55:22.165Z,100.00
2022-10-17T07:56:24.803Z,100.00
2022-10-17T07:57:26.963Z,100.00
2022-10-17T07:58:31.232Z,100.00
2022-10-17T07:59:34.964Z,100.00
2022-10-17T08:00:37.204Z,100.00
2022-10-17T08:01:39.493Z,100.00
2022-10-17T08:02:41.653Z,100.00
2022-10-17T08:03:44.850Z,100.00
2022-10-17T08:04:46.959Z,100.00
2022-10-17T08:05:49.196Z,100.00
2022-10-17T08:06:56.367Z,100.00
2022-10-17T08:08:02.718Z,100.00
2022-10-17T08:09:04.852Z,100.00
2022-10-17T08:11:13.321Z,100.00
2022-10-17T08:12:15.668Z,100.00
2022-10-17T08:13:17.931Z,100.00
2022-10-17T08:14:20.121Z,100.00
2022-10-17T08:15:25.661Z,100.00
2022-10-17T08:16:28.884Z,100.00
2022-10-17T08:17:31.086Z,100.00
2022-10-17T08:18:33.913Z,100.00
2022-10-17T08:19:40.410Z,100.00
2022-10-17T08:20:42.635Z,100.00
2022-10-17T08:21:46.814Z,100.00
2022-10-17T08:22:53.603Z,100.00
2022-10-17T08:23:55.909Z,100.00
2022-10-17T08:24:58.321Z,100.00
2022-10-17T08:26:02.149Z,100.00
2022-10-17T08:27:11.178Z,100.00
2022-10-17T08:28:13.371Z,100.00
2022-10-17T08:29:16.622Z,100.00
2022-10-17T08:30:18.721Z,100.00
2022-10-17T08:31:21.230Z,100.00
2022-10-17T08:32:28.113Z,100.00
2022-10-17T08:33:30.457Z,100.00
2022-10-17T08:34:32.675Z,100.00
2022-10-17T08:35:35.052Z,100.00
2022-10-17T08:36:37.226Z,100.00
2022-10-17T08:37:39.322Z,97.38
2022-10-17T08:38:43.676Z,95.00
2022-10-17T08:39:45.983Z,94.59
2022-10-17T08:40:49.514Z,94.20
2022-10-17T08:42:19.534Z,97.13
2022-10-17T08:43:49.258Z,95.93
2022-10-17T08:45:06.982Z,94.23
2022-10-17T08:46:09.891Z,92.93
2022-10-17T08:47:19.873Z,93.04
2022-10-17T08:48:25.910Z,96.80
2022-10-17T08:49:52.504Z,98.78
2022-10-17T08:51:04.191Z,99.58
2022-10-17T08:52:15.027Z,100.00
2022-10-17T08:53:28.031Z,100.00
2022-10-17T08:54:50.859Z,100.00
2022-10-17T08:55:54.629Z,100.00
2022-10-17T08:56:57.463Z,100.00
2022-10-17T08:58:00.016Z,100.00
2022-10-17T08:59:05.586Z,100.00
2022-10-17T09:00:16.980Z,100.00
2022-10-17T09:01:24.923Z,100.00
2022-10-17T09:02:49.176Z,100.00
2022-10-17T09:04:10.078Z,100.00
2022-10-17T09:05:15.342Z,100.00
2022-10-17T09:06:30.024Z,100.00
2022-10-17T09:07:49.958Z,100.00
2022-10-17T09:09:14.995Z,100.00
2022-10-17T09:10:32.117Z,100.00
2022-10-17T09:11:48.665Z,100.00
2022-10-17T09:13:09.829Z,100.00
2022-10-17T09:14:33.938Z,100.00
2022-10-17T09:15:51.254Z,100.00
2022-10-17T09:17:15.654Z,100.00
2022-10-17T09:18:27.764Z,100.00
2022-10-17T09:19:36.371Z,100.00
2022-10-17T09:20:47.023Z,100.00
2022-10-17T09:21:51.767Z,100.00
2022-10-17T09:22:58.903Z,100.00
2022-10-17T09:24:09.845Z,100.00
2022-10-17T09:25:20.203Z,100.00
2022-10-17T09:26:24.544Z,100.00
2022-10-17T09:27:41.567Z,100.00
2022-10-17T09:28:44.086Z,100.00
2022-10-17T09:29:49.500Z,100.00
2022-10-17T09:31:18.170Z,100.00
2022-10-17T09:32:25.075Z,100.00
2022-10-17T09:33:54.189Z,100.00
2022-10-17T09:34:56.929Z,100.00
2022-10-17T09:36:00.392Z,100.00
2022-10-17T09:37:02.962Z,100.00
2022-10-17T09:38:05.461Z,100.00
2022-10-17T09:39:17.823Z,100.00
2022-10-17T09:40:26.987Z,100.00
2022-10-17T09:41:45.545Z,100.00
2022-10-17T09:42:51.260Z,100.00
2022-10-17T09:43:56.681Z,100.00
2022-10-17T09:45:10.962Z,100.00
2022-10-17T09:46:22.588Z,100.00
2022-10-17T09:47:31.971Z,100.00
2022-10-17T09:48:39.993Z,100.00
2022-10-17T09:49:45.695Z,100.00
2022-10-17T09:50:57.806Z,100.00
2022-10-17T09:52:49.565Z,100.00
2022-10-17T09:53:59.513Z,100.00
2022-10-17T09:55:15.876Z,100.00
2022-10-17T09:56:19.573Z,100.00
2022-10-17T09:57:22.209Z,100.00
2022-10-17T09:58:40.587Z,100.00
2022-10-17T09:59:46.047Z,100.00
2022-10-17T10:00:49.785Z,100.00
2022-10-17T10:02:07.178Z,100.00
2022-10-17T10:03:26.461Z,100.00
2022-10-17T10:04:30.349Z,100.00
2022-10-17T10:05:39.976Z,100.00
2022-10-17T10:07:01.733Z,100.00
2022-10-17T10:08:12.723Z,100.00
2022-10-17T10:09:22.454Z,100.00
2022-10-17T10:10:28.117Z,100.00
2022-10-17T10:11:50.290Z,100.00
2022-10-17T10:13:16.190Z,100.00
2022-10-17T10:14:24.391Z,100.00
2022-10-17T10:15:34.014Z,100.00
2022-10-17T10:16:42.460Z,100.00
2022-10-17T10:17:44.630Z,100.00
2022-10-17T10:18:50.132Z,100.00
2022-10-17T10:19:53.811Z,100.00
2022-10-17T10:21:06.734Z,100.00
2022-10-17T10:22:16.882Z,100.00
2022-10-17T10:23:22.169Z,100.00
2022-10-17T10:24:30.659Z,100.00
2022-10-17T10:25:35.009Z,100.00
2022-10-17T10:26:46.084Z,100.00
2022-10-17T10:27:48.269Z,100.00
2022-10-17T10:28:57.915Z,100.00
2022-10-17T10:30:00.391Z,100.00
2022-10-17T10:31:06.152Z,100.00
2022-10-17T10:32:32.362Z,100.00
2022-10-17T10:33:49.371Z,100.00
2022-10-17T10:35:31.386Z,100.00
2022-10-17T10:36:44.563Z,100.00
2022-10-17T10:37:50.926Z,100.00
2022-10-17T10:38:57.690Z,100.00
2022-10-17T10:40:04.168Z,100.00
2022-10-17T10:41:11.315Z,100.00
2022-10-17T10:42:30.495Z,100.00
2022-10-17T10:43:40.922Z,100.00
2022-10-17T10:44:43.102Z,100.00
2022-10-17T10:45:49.090Z,100.00
2022-10-17T10:47:18.191Z,100.00
2022-10-17T10:48:36.486Z,100.00
2022-10-17T10:49:39.418Z,100.00
2022-10-17T10:50:49.241Z,100.00
2022-10-17T10:51:52.274Z,100.00
2022-10-17T10:53:16.016Z,100.00
2022-10-17T10:54:26.525Z,100.00
2022-10-17T10:55:35.705Z,100.00
2022-10-17T10:56:41.622Z,100.00
2022-10-17T10:57:46.773Z,100.00
2022-10-17T10:58:54.681Z,100.00
2022-10-17T11:00:12.413Z,100.00
2022-10-17T11:01:46.233Z,100.00
2022-10-17T11:03:19.462Z,100.00
2022-10-17T11:04:46.413Z,100.00
2022-10-17T11:05:54.959Z,100.00
2022-10-17T11:07:15.289Z,100.00
2022-10-17T11:08:27.027Z,100.00
2022-10-17T11:09:54.567Z,100.00
2022-10-17T11:11:18.313Z,100.00
2022-10-17T11:12:34.277Z,100.00
2022-10-17T11:13:43.190Z,100.00
2022-10-17T11:14:53.162Z,100.00
2022-10-17T11:15:59.566Z,100.00
2022-10-17T11:17:13.586Z,100.00
2022-10-17T11:18:35.227Z,100.00
2022-10-17T11:19:56.400Z,100.00
2022-10-17T11:21:16.558Z,100.00
2022-10-17T11:22:29.341Z,100.00
2022-10-17T11:24:02.898Z,100.00
2022-10-17T11:25:13.279Z,100.00
2022-10-17T11:26:46.571Z,100.00
2022-10-17T11:27:48.703Z,100.00
2022-10-17T11:28:50.878Z,100.00
2022-10-17T11:29:53.158Z,100.00
2022-10-17T11:31:03.320Z,100.00
2022-10-17T11:32:20.972Z,100.00
2022-10-17T11:33:31.715Z,100.00
2022-10-17T11:34:37.921Z,100.00
2022-10-17T11:35:45.607Z,100.00
2022-10-17T11:36:52.767Z,100.00
2022-10-17T11:38:18.847Z,100.00
2022-10-17T11:39:30.598Z,100.00
2022-10-17T11:40:38.616Z,100.00
2022-10-17T11:41:59.819Z,100.00
2022-10-17T11:43:14.719Z,100.00
2022-10-17T11:44:23.213Z,100.00
2022-10-17T11:45:27.986Z,100.00
2022-10-17T11:46:32.134Z,100.00
2022-10-17T11:47:47.779Z,100.00
2022-10-17T11:49:05.046Z,100.00
2022-10-17T11:52:01.668Z,100.00
2022-10-17T11:53:19.194Z,100.00
2022-10-17T11:54:35.129Z,100.00
2022-10-17T11:55:38.408Z,100.00
2022-10-17T11:57:18.215Z,100.00
2022-10-17T11:58:35.807Z,100.00
2022-10-17T11:59:47.126Z,100.00
2022-10-17T12:00:49.817Z,100.00
2022-10-17T12:02:01.168Z,100.00
2022-10-17T12:03:12.369Z,100.00
2022-10-17T12:04:38.104Z,100.00
2022-10-17T12:05:58.642Z,100.00
2022-10-17T12:07:26.927Z,100.00
2022-10-17T12:08:37.782Z,100.00
2022-10-17T12:09:48.953Z,100.00
2022-10-17T12:11:28.859Z,100.00
2022-10-17T12:12:33.412Z,100.00
2022-10-17T12:13:41.190Z,100.00
2022-10-17T12:14:45.730Z,100.00
2022-10-17T12:15:47.862Z,100.00
2022-10-17T12:16:50.803Z,100.00
2022-10-17T12:18:02.253Z,100.00
2022-10-17T12:19:06.419Z,100.00
2022-10-17T12:20:51.014Z,100.00
2022-10-17T12:22:02.457Z,100.00
2022-10-17T12:23:14.504Z,100.00
2022-10-17T12:24:42.200Z,100.00
2022-10-17T12:26:04.829Z,100.00
2022-10-17T12:27:45.762Z,100.00
2022-10-17T12:28:48.361Z,100.00
2022-10-17T12:29:58.672Z,100.00
2022-10-17T12:31:15.733Z,100.00
2022-10-17T12:32:17.928Z,100.00
2022-10-17T12:33:26.758Z,100.00
2022-10-17T12:34:28.927Z,100.00
2022-10-17T12:35:33.344Z,100.00
2022-10-17T12:36:35.584Z,100.00
2022-10-17T12:37:55.151Z,100.00
2022-10-17T12:39:02.613Z,100.00
2022-10-17T12:40:36.677Z,100.00
2022-10-17T12:41:38.754Z,100.00
2022-10-17T12:42:49.362Z,100.00
2022-10-17T12:43:53.503Z,100.00
2022-10-17T12:44:55.655Z,100.00
2022-10-17T12:45:59.756Z,100.00
2022-10-17T12:47:09.418Z,100.00
2022-10-17T12:48:11.854Z,100.00
2022-10-17T12:49:40.276Z,100.00
2022-10-17T12:51:34.698Z,100.00
2022-10-17T12:52:32.830Z,100.00
2022-10-17T12:53:47.314Z,100.00
2022-10-17T12:55:12.501Z,100.00
2022-10-17T12:56:21.556Z,100.00
2022-10-17T12:57:45.085Z,100.00
2022-10-17T12:58:50.131Z,100.00
2022-10-17T12:59:56.706Z,100.00
2022-10-17T13:02:27.224Z,100.00
2022-10-17T13:03:33.420Z,100.00
2022-10-17T13:04:36.956Z,100.00
2022-10-17T13:05:43.925Z,100.00
2022-10-17T13:06:49.399Z,100.00
2022-10-17T13:07:53.385Z,100.00
2022-10-17T13:09:04.097Z,100.00
2022-10-17T13:10:18.104Z,100.00
2022-10-17T13:11:28.920Z,100.00
2022-10-17T13:12:36.525Z,100.00
2022-10-17T13:13:49.395Z,100.00
2022-10-17T13:14:53.954Z,100.00
2022-10-17T13:15:56.135Z,100.00
2022-10-17T13:17:04.631Z,100.00
2022-10-17T13:18:06.770Z,100.00
2022-10-17T13:19:23.138Z,100.00
2022-10-17T13:20:31.341Z,100.00
2022-10-17T13:21:34.129Z,100.00
2022-10-17T13:22:44.880Z,100.00
2022-10-17T13:23:49.272Z,100.00
2022-10-17T13:24:53.259Z,100.00
2022-10-17T13:26:19.970Z,100.00
2022-10-17T13:27:26.924Z,100.00
2022-10-17T13:28:29.151Z,100.00
2022-10-17T13:29:32.987Z,100.00
2022-10-17T13:30:36.631Z,100.00
2022-10-17T13:31:41.059Z,100.00
2022-10-17T13:32:45.065Z,100.00
2022-10-17T13:33:47.308Z,100.00
2022-10-17T13:35:09.969Z,100.00
2022-10-17T13:36:19.662Z,100.00
2022-10-17T13:37:21.977Z,100.00
2022-10-17T13:38:28.830Z,100.00
2022-10-17T13:39:52.783Z,100.00
2022-10-17T13:41:05.859Z,100.00
2022-10-17T13:42:27.489Z,100.00
2022-10-17T13:43:32.261Z,100.00
2022-10-17T13:44:37.081Z,100.00
2022-10-17T13:45:40.297Z,100.00
2022-10-17T13:46:43.585Z,100.00
2022-10-17T13:47:46.083Z,100.00
2022-10-17T13:48:49.508Z,100.00
2022-10-17T13:49:55.200Z,100.00
2022-10-17T13:51:03.027Z,100.00
2022-10-17T13:52:14.156Z,100.00
2022-10-17T13:53:36.184Z,100.00
2022-10-17T13:54:44.938Z,100.00
2022-10-17T13:56:15.712Z,100.00
2022-10-17T13:57:22.907Z,100.00
2022-10-17T13:58:25.958Z,100.00
2022-10-17T13:59:36.878Z,100.00
2022-10-17T14:00:39.137Z,100.00
2022-10-17T14:01:41.333Z,100.00
2022-10-17T14:02:43.636Z,100.00
2022-10-17T14:03:49.019Z,100.00
2022-10-17T14:05:16.730Z,100.00
2022-10-17T14:06:24.569Z,100.00
2022-10-17T14:07:58.005Z,100.00
2022-10-17T14:09:00.558Z,100.00
2022-10-17T14:10:06.304Z,100.00
2022-10-17T14:11:21.907Z,100.00
2022-10-17T14:12:24.105Z,100.00
2022-10-17T14:13:30.125Z,100.00
2022-10-17T14:14:51.676Z,100.00
2022-10-17T14:15:59.382Z,100.00
2022-10-17T14:17:01.651Z,100.00
2022-10-17T14:18:09.171Z,100.00
2022-10-17T14:19:27.864Z,100.00
2022-10-17T14:22:14.320Z,100.00